Time;durP1;ratioP1;P1;durP2;ratioP2;P2;SDS_P1;SDS_P2;PMS_P1;PMS_P2;Temp;Humidity;BMP_temperature;BMP_pressure;BME280_temperature;BME280_humidity;BME280_pressure;Samples;Min_cycle;Max_cycle;Signal;HPM_P1;HPM_P2
2022/01/25 00:09:32;;;;;;;36.15;15.00;;;;;;;4.48;100.00;101617.39;739995;1153;115714;-74
2022/01/25 00:25:02;;;;;;;27.58;13.63;;;;;;;4.47;100.00;101623.53;740860;1154;115069;-74
2022/01/25 00:39:59;;;;;;;34.33;15.73;;;;;;;4.37;100.00;101608.34;740498;1155;114068;-80
2022/01/25 00:55:03;;;;;;;45.70;19.83;;;;;;;4.42;100.00;101603.81;740705;1153;115208;-80
2022/01/25 01:10:06;;;;;;;27.90;14.55;;;;;;;4.41;100.00;101600.38;740771;1155;114016;-80
2022/01/25 01:55:50;;;;;;;51.35;20.65;;;;;;;4.29;100.00;101567.12;740048;1153;115233;-81
2022/01/25 02:10:52;;;;;;;25.93;12.27;;;;;;;4.24;100.00;101543.08;740388;1153;114990;-80
2022/01/25 02:25:58;;;;;;;19.83;9.78;;;;;;;4.21;100.00;101545.78;740000;1153;115041;-79
2022/01/25 02:41:01;;;;;;;16.77;9.27;;;;;;;4.23;100.00;101544.81;739835;1153;114528;-81
2022/01/25 02:56:03;;;;;;;14.75;7.90;;;;;;;4.22;100.00;101524.10;739993;1155;114756;-81
2022/01/25 03:11:06;;;;;;;23.63;9.30;;;;;;;4.18;100.00;101491.38;740416;1153;115019;-80
2022/01/25 03:26:08;;;;;;;18.63;9.25;;;;;;;4.11;100.00;101476.04;740533;1153;114781;-80
2022/01/25 03:41:12;;;;;;;15.83;8.25;;;;;;;4.02;100.00;101450.45;740142;1153;115002;-81
2022/01/25 03:56:14;;;;;;;21.53;9.58;;;;;;;3.97;100.00;101447.20;740070;1155;114718;-81
2022/01/25 04:11:17;;;;;;;18.10;10.53;;;;;;;3.97;100.00;101434.22;739760;1154;114099;-81
2022/01/25 04:26:19;;;;;;;19.77;9.60;;;;;;;3.89;100.00;101415.53;740206;1155;114181;-80
2022/01/25 04:56:55;;;;;;;17.35;9.03;;;;;;;3.86;100.00;101400.09;740136;1155;115129;-80
2022/01/25 05:11:58;;;;;;;15.37;8.03;;;;;;;3.87;100.00;101386.18;740275;1153;114927;-80
2022/01/25 05:27:01;;;;;;;20.40;10.50;;;;;;;3.99;100.00;101368.33;740265;1153;115041;-74
2022/01/25 05:57:21;;;;;;;37.85;27.65;;;;;;;4.12;100.00;101376.45;739886;1153;114691;-74
2022/01/25 06:12:23;;;;;;;24.17;12.43;;;;;;;4.15;100.00;101367.67;741837;1153;115037;-72
2022/01/25 06:27:25;;;;;;;27.63;14.53;;;;;;;4.17;100.00;101368.47;740743;1155;114882;-73
2022/01/25 06:42:30;;;;;;;34.60;14.83;;;;;;;4.22;100.00;101365.65;741066;1153;115041;-74
2022/01/25 06:57:33;;;;;;;28.93;12.63;;;;;;;4.27;100.00;101348.94;740229;1153;114353;-83
2022/01/25 07:12:35;;;;;;;33.25;14.83;;;;;;;4.30;100.00;101332.38;740410;1154;114303;-82
2022/01/25 07:27:38;;;;;;;41.35;16.85;;;;;;;4.41;100.00;101311.95;740140;1154;115007;-83
2022/01/25 07:42:41;;;;;;;47.60;19.00;;;;;;;4.50;100.00;101327.13;740688;1154;114613;-83
2022/01/25 07:57:48;;;;;;;55.57;20.47;;;;;;;4.56;100.00;101328.59;741829;1155;114414;-84
2022/01/25 08:12:51;;;;;;;65.67;23.93;;;;;;;4.58;100.00;101302.52;739740;1154;114729;-75
2022/01/25 08:27:53;;;;;;;105.60;48.25;;;;;;;4.64;100.00;101307.45;739956;1153;114952;-75
2022/01/25 08:43:02;;;;;;;31.95;15.93;;;;;;;4.71;100.00;101297.59;739954;1153;115404;-75
2022/01/25 08:58:06;;;;;;;33.65;15.65;;;;;;;4.86;100.00;101298.62;740268;1153;114896;-75
2022/01/25 09:13:08;;;;;;;28.00;11.55;;;;;;;4.88;100.00;101310.63;739951;1154;114726;-75
2022/01/25 09:28:12;;;;;;;26.83;12.25;;;;;;;4.90;100.00;101318.38;740072;1155;114339;-76
2022/01/25 09:43:15;;;;;;;36.48;18.68;;;;;;;5.04;100.00;101304.70;740699;1153;115515;-75
2022/01/25 09:58:17;;;;;;;34.90;16.40;;;;;;;5.16;100.00;101296.31;740717;1153;115819;-74
2022/01/25 10:13:26;;;;;;;48.15;21.93;;;;;;;5.29;100.00;101291.33;741149;1155;114140;-75
2022/01/25 10:28:30;;;;;;;60.10;23.70;;;;;;;5.42;100.00;101299.37;740737;1155;115036;-73
2022/01/25 10:43:34;;;;;;;34.83;17.40;;;;;;;5.63;100.00;101269.63;740389;1153;114635;-74
2022/01/25 10:58:40;;;;;;;27.60;14.80;;;;;;;5.73;100.00;101256.99;741033;1153;114828;-75
2022/01/25 11:13:48;;;;;;;66.63;24.43;;;;;;;5.64;100.00;101247.06;739806;1155;114170;-75
2022/01/25 11:28:51;;;;;;;43.00;20.37;;;;;;;5.76;100.00;101237.77;740059;1153;114331;-75
2022/01/25 11:44:11;;;;;;;151.53;51.53;;;;;;;5.73;100.00;101236.16;740801;1153;114500;-73
2022/01/25 11:59:14;;;;;;;238.00;93.63;;;;;;;5.75;100.00;101223.88;740363;1155;115178;-76
2022/01/25 12:14:26;;;;;;;59.50;27.65;;;;;;;5.72;100.00;101224.06;740624;1153;115459;-76
2022/01/25 12:29:41;;;;;;;78.73;38.53;;;;;;;5.82;100.00;101217.45;740258;1153;115031;-75
2022/01/25 12:44:45;;;;;;;59.68;28.63;;;;;;;5.81;100.00;101197.53;740703;1155;114224;-76
2022/01/25 12:59:49;;;;;;;65.10;29.10;;;;;;;5.96;100.00;101210.66;740214;1153;114999;-75
2022/01/25 13:15:04;;;;;;;45.55;20.03;;;;;;;6.07;100.00;101221.38;740453;1153;114139;-73
2022/01/25 13:45:46;;;;;;;60.10;27.35;;;;;;;6.09;100.00;101236.92;740090;1155;115582;-75
2022/01/25 14:00:50;;;;;;;40.15;19.45;;;;;;;6.05;100.00;101225.81;740189;1153;114722;-75
2022/01/25 14:31:20;;;;;;;55.18;24.25;;;;;;;6.15;100.00;101240.03;740748;1155;114928;-73
2022/01/25 14:46:29;;;;;;;96.40;42.80;;;;;;;6.14;100.00;101246.16;741046;1155;114999;-72
2022/01/25 15:01:33;;;;;;;41.70;21.80;;;;;;;6.28;100.00;101252.38;741416;1153;114080;-74
2022/01/25 15:16:36;;;;;;;61.20;24.50;;;;;;;6.28;100.00;101249.77;740974;1155;115576;-79
2022/01/25 15:31:39;;;;;;;64.85;29.48;;;;;;;6.12;100.00;101253.23;742825;1155;114275;-79
2022/01/25 16:02:09;;;;;;;662.00;210.33;;;;;;;6.15;100.00;101271.30;741711;1154;115113;-83
2022/01/25 16:17:12;;;;;;;;;;;;;;;5.89;100.00;101271.83;740686;1154;115674;-81
2022/01/25 16:32:19;;;;;;;162.45;68.63;;;;;;;5.81;100.00;101274.82;742055;1153;101793;-82
2022/01/25 16:47:22;;;;;;;108.78;44.95;;;;;;;5.78;100.00;101272.36;741336;1153;115449;-82
2022/01/25 17:02:25;;;;;;;381.10;142.17;;;;;;;5.82;100.00;101279.95;741214;1153;114408;-82
2022/01/25 17:17:28;;;;;;;172.55;75.33;;;;;;;5.68;100.00;101294.61;740536;1153;114672;-82
2022/01/25 17:32:31;;;;;;;168.60;65.70;;;;;;;5.60;100.00;101297.60;741662;1155;114774;-85
2022/01/25 17:47:35;;;;;;;80.47;35.07;;;;;;;5.52;100.00;101286.72;744083;1154;114710;-85
2022/01/25 18:02:41;;;;;;;50.23;23.53;;;;;;;5.44;100.00;101300.97;742557;1154;115673;-77
2022/01/25 18:17:44;;;;;;;91.53;35.55;;;;;;;5.45;100.00;101292.25;741245;1153;114312;-77
2022/01/25 18:32:48;;;;;;;103.83;44.63;;;;;;;5.53;100.00;101296.22;740950;1155;115091;-77
2022/01/25 18:47:54;;;;;;;152.58;53.93;;;;;;;5.41;100.00;101303.73;740987;1154;115246;-77
2022/01/25 19:02:57;;;;;;;143.48;39.25;;;;;;;5.37;100.00;101293.55;741061;1153;114591;-78
2022/01/25 19:18:01;;;;;;;34.83;16.65;;;;;;;5.37;100.00;101291.80;740737;1153;115230;-76
2022/01/25 19:33:04;;;;;;;38.20;17.90;;;;;;;5.23;100.00;101294.25;740809;1154;114259;-78
2022/01/25 19:48:08;;;;;;;67.90;26.68;;;;;;;5.27;100.00;101309.62;740444;1154;114209;-74
2022/01/25 20:03:11;;;;;;;79.58;29.18;;;;;;;5.14;100.00;101309.38;740869;1153;115647;-74
2022/01/25 20:18:13;;;;;;;121.13;32.63;;;;;;;5.08;100.00;101307.09;740361;1155;115070;-75
2022/01/25 20:33:17;;;;;;;78.53;28.28;;;;;;;4.94;100.00;101291.31;740853;1155;115253;-74
2022/01/25 20:48:20;;;;;;;59.28;23.45;;;;;;;4.83;100.00;101297.86;742607;1153;115211;-74
2022/01/25 21:18:31;;;;;;;84.93;33.90;;;;;;;4.90;100.00;101302.78;740305;1153;115277;-75
2022/01/25 21:33:33;;;;;;;197.60;63.17;;;;;;;4.92;100.00;101291.39;740480;1153;115902;-74
2022/01/25 21:48:37;;;;;;;92.48;40.58;;;;;;;5.00;100.00;101285.80;740080;1153;115271;-74
2022/01/25 22:03:52;;;;;;;35.97;17.03;;;;;;;4.93;100.00;101272.25;740758;1155;115586;-75
2022/01/25 22:18:55;;;;;;;40.83;16.93;;;;;;;4.94;100.00;101271.34;740553;1153;115610;-74
2022/01/25 22:33:59;;;;;;;33.68;12.90;;;;;;;4.83;100.00;101284.03;739834;1153;114368;-75
2022/01/25 22:49:05;;;;;;;26.70;11.57;;;;;;;4.78;100.00;101273.84;739855;1155;114625;-74
2022/01/25 23:04:07;;;;;;;20.40;9.38;;;;;;;4.74;100.00;101266.25;739500;1153;115188;-74
2022/01/25 23:19:26;;;;;;;28.48;10.95;;;;;;;4.78;100.00;101258.24;740298;1153;114855;-74
2022/01/25 23:49:43;;;;;;;28.68;12.80;;;;;;;4.75;100.00;101235.00;739723;1153;115184;-74
